Time;durP1;ratioP1;P1;durP2;ratioP2;P2;SDS_P1;SDS_P2;PMS_P1;PMS_P2;Temp;Humidity;BMP_temperature;BMP_pressure;BME280_temperature;BME280_humidity;BME280_pressure;Samples;Min_cycle;Max_cycle;Signal;HPM_P1;HPM_P2
2022/01/28 00:00:35;;;;;;;21.45;3.88;;;5.80;93.30;;;;;;5156196;27;38529;-59
2022/01/28 00:03:07;;;;;;;17.63;3.05;;;5.70;93.40;;;;;;5156235;27;36596;-59
2022/01/28 00:05:36;;;;;;;16.70;2.28;;;5.80;93.50;;;;;;5157898;27;37564;-59
2022/01/28 00:08:06;;;;;;;18.38;3.58;;;5.80;93.50;;;;;;5157128;27;37614;-59
2022/01/28 00:10:34;;;;;;;22.65;3.92;;;5.80;93.70;;;;;;5157593;27;37382;-59
2022/01/28 00:13:19;;;;;;;24.55;3.88;;;5.80;93.50;;;;;;5157985;27;38898;-59
2022/01/28 00:16:09;;;;;;;19.77;3.17;;;5.70;93.50;;;;;;5156371;27;37885;-59
2022/01/28 00:40:33;;;;;;;19.23;2.60;;;5.60;92.50;;;;;;5150900;27;37097;-59
2022/01/28 00:43:01;;;;;;;19.15;4.65;;;5.60;92.30;;;;;;5153827;27;39076;-59
2022/01/28 00:45:28;;;;;;;20.70;2.78;;;5.60;92.40;;;;;;5156057;27;37521;-59
2022/01/28 00:47:56;;;;;;;20.90;3.20;;;5.60;92.30;;;;;;5156799;27;39097;-59
2022/01/28 00:50:24;;;;;;;22.27;4.40;;;5.60;92.20;;;;;;5159849;27;36894;-59
2022/01/28 00:52:52;;;;;;;17.83;2.58;;;5.60;92.30;;;;;;5159843;27;38036;-60
2022/01/28 00:55:19;;;;;;;16.15;3.00;;;5.60;92.40;;;;;;5158212;27;37318;-59
2022/01/28 00:57:48;;;;;;;23.77;3.55;;;5.70;92.40;;;;;;5157737;27;35699;-59
2022/01/28 01:00:16;;;;;;;16.02;3.78;;;5.70;92.20;;;;;;5158341;27;37106;-59
2022/01/28 01:02:43;;;;;;;16.55;3.45;;;5.80;92.30;;;;;;5158981;27;37396;-59
2022/01/28 01:05:11;;;;;;;17.92;3.72;;;5.80;92.30;;;;;;5159115;27;37168;-59
2022/01/28 01:07:39;;;;;;;17.70;3.08;;;5.90;92.10;;;;;;5159394;27;36825;-59
2022/01/28 01:10:08;;;;;;;20.25;3.80;;;5.90;91.90;;;;;;5158744;27;37547;-60
2022/01/28 01:12:41;;;;;;;22.42;4.88;;;6.00;91.60;;;;;;5160267;27;37951;-60
2022/01/28 01:15:11;;;;;;;19.40;3.40;;;6.10;91.40;;;;;;5160106;27;37268;-59
2022/01/28 01:17:43;;;;;;;21.58;3.17;;;6.00;91.40;;;;;;5159402;27;37529;-59
2022/01/28 01:20:35;;;;;;;22.08;3.67;;;6.00;91.20;;;;;;5157897;27;36598;-60
2022/01/28 01:23:08;;;;;;;19.15;3.40;;;6.00;91.20;;;;;;5159340;27;36253;-60
2022/01/28 01:25:43;;;;;;;15.45;3.75;;;6.00;91.30;;;;;;5158504;27;37631;-60
2022/01/28 01:28:11;;;;;;;19.35;2.88;;;6.10;91.20;;;;;;5159652;27;37237;-59
2022/01/28 01:30:43;;;;;;;18.02;3.10;;;6.10;91.20;;;;;;5159353;27;38772;-60
2022/01/28 01:33:11;;;;;;;21.08;3.95;;;6.10;91.30;;;;;;5158774;27;38782;-59
2022/01/28 01:35:39;;;;;;;25.35;3.85;;;6.10;91.30;;;;;;5159647;27;37448;-59
2022/01/28 01:38:09;;;;;;;24.73;3.35;;;6.20;91.40;;;;;;5158975;27;37864;-59
2022/01/28 01:40:44;;;;;;;20.95;4.22;;;6.20;91.50;;;;;;5158572;27;37947;-59
2022/01/28 01:43:18;;;;;;;22.77;3.55;;;6.20;91.50;;;;;;5159508;27;39551;-59
2022/01/28 01:46:08;;;;;;;23.42;3.92;;;6.20;91.50;;;;;;5157584;27;36113;-59
2022/01/28 01:54:05;;;;;;;27.25;4.95;;;6.20;91.80;;;;;;5159199;27;37595;-60
2022/01/28 01:56:34;;;;;;;26.65;4.68;;;6.10;91.80;;;;;;5158289;27;38339;-59
2022/01/28 01:59:02;;;;;;;27.08;5.63;;;6.20;91.90;;;;;;5157396;27;36503;-60
2022/01/28 02:01:31;;;;;;;17.05;3.40;;;6.20;92.00;;;;;;5158283;27;36569;-59
2022/01/28 02:03:58;;;;;;;26.50;4.60;;;6.20;92.00;;;;;;5157372;27;41501;-60
2022/01/28 02:06:25;;;;;;;31.23;4.55;;;6.30;92.00;;;;;;5159480;27;37607;-59
2022/01/28 02:08:53;;;;;;;22.67;3.53;;;6.30;92.00;;;;;;5153031;27;35723;-59
2022/01/28 02:11:20;;;;;;;26.02;5.68;;;6.30;92.00;;;;;;5156986;27;37429;-59
2022/01/28 02:13:49;;;;;;;19.83;4.20;;;6.30;92.00;;;;;;5158369;27;37535;-60
2022/01/28 02:16:17;;;;;;;25.38;4.35;;;6.30;91.90;;;;;;5158361;27;37568;-60
2022/01/28 02:18:46;;;;;;;29.92;4.57;;;6.40;91.90;;;;;;5156440;27;36973;-60
2022/01/28 02:21:17;;;;;;;46.58;4.90;;;6.40;91.80;;;;;;5157019;27;36494;-59
2022/01/28 02:23:49;;;;;;;23.30;3.90;;;6.40;91.80;;;;;;5154508;27;36568;-59
2022/01/28 02:26:17;;;;;;;25.15;3.95;;;6.50;91.70;;;;;;5156545;27;37554;-60
2022/01/28 02:28:48;;;;;;;29.52;4.70;;;6.40;91.60;;;;;;5157197;27;35972;-60
2022/01/28 02:31:19;;;;;;;24.85;4.25;;;6.50;91.40;;;;;;5158196;27;35402;-60
2022/01/28 02:33:48;;;;;;;24.13;4.35;;;6.50;91.30;;;;;;5157885;27;36308;-60
2022/01/28 02:36:17;;;;;;;16.65;3.72;;;6.50;91.00;;;;;;5157548;27;36059;-59
2022/01/28 02:38:44;;;;;;;26.73;4.43;;;6.50;91.10;;;;;;5158639;27;37225;-60
2022/01/28 02:41:11;;;;;;;26.50;4.10;;;6.50;91.10;;;;;;5158353;27;36737;-60
2022/01/28 02:43:43;;;;;;;18.77;3.63;;;6.50;90.90;;;;;;5158317;27;37475;-59
2022/01/28 02:46:13;;;;;;;21.50;3.80;;;6.50;90.70;;;;;;5158209;27;37068;-59
2022/01/28 02:48:50;;;;;;;23.52;4.03;;;6.50;90.70;;;;;;5159251;27;37064;-60
2022/01/28 02:51:21;;;;;;;26.65;4.85;;;6.50;90.60;;;;;;5158471;27;38418;-60
2022/01/28 02:53:53;;;;;;;29.20;4.55;;;6.60;90.50;;;;;;5157829;27;37307;-60
2022/01/28 02:56:23;;;;;;;24.77;3.88;;;6.50;90.20;;;;;;5156665;27;39230;-61
2022/01/28 02:58:51;;;;;;;34.80;6.53;;;6.50;90.00;;;;;;5159345;27;38195;-60
2022/01/28 03:01:20;;;;;;;28.00;3.67;;;6.40;89.90;;;;;;5157051;27;35265;-60
2022/01/28 03:03:50;;;;;;;24.65;3.83;;;6.50;89.60;;;;;;5157431;27;36553;-60
2022/01/28 03:06:20;;;;;;;21.00;4.07;;;6.50;89.30;;;;;;5156939;27;39409;-60
2022/01/28 03:08:55;;;;;;;19.52;3.70;;;6.50;89.50;;;;;;5157330;27;37015;-60
2022/01/28 03:11:43;;;;;;;25.13;3.75;;;6.40;89.20;;;;;;5157682;27;36914;-60
2022/01/28 03:14:19;;;;;;;24.55;3.60;;;6.40;88.50;;;;;;5156385;27;37657;-59
2022/01/28 03:19:49;;;;;;;18.73;4.10;;;6.40;87.70;;;;;;5149253;27;37398;-59
2022/01/28 03:22:18;;;;;;;21.05;4.00;;;6.30;86.50;;;;;;5156270;27;36381;-59
2022/01/28 03:24:50;;;;;;;14.52;3.33;;;6.30;85.80;;;;;;5156863;27;36320;-60
2022/01/28 03:27:33;;;;;;;25.33;4.10;;;6.50;85.70;;;;;;5157512;27;38247;-59
2022/01/28 03:30:01;;;;;;;15.18;3.10;;;6.20;85.40;;;;;;5157655;27;36870;-60
2022/01/28 03:32:28;;;;;;;24.27;4.88;;;6.10;85.30;;;;;;5158707;27;36083;-60
2022/01/28 03:34:55;;;;;;;16.63;3.22;;;6.10;85.10;;;;;;5155477;27;38523;-60
2022/01/28 03:37:24;;;;;;;21.75;4.53;;;6.10;85.30;;;;;;5156098;27;36388;-60
2022/01/28 03:39:51;;;;;;;18.50;3.90;;;6.10;84.90;;;;;;5155905;27;35962;-59
2022/01/28 03:42:18;;;;;;;20.80;3.15;;;6.10;84.90;;;;;;5156076;27;37260;-60
2022/01/28 03:44:46;;;;;;;17.13;3.72;;;6.10;85.10;;;;;;5157261;27;37998;-59
2022/01/28 03:47:13;;;;;;;20.45;4.28;;;6.00;85.00;;;;;;5156085;27;36040;-59
2022/01/28 03:49:40;;;;;;;24.40;5.05;;;6.00;85.00;;;;;;5158392;27;38217;-59
2022/01/28 03:52:08;;;;;;;19.23;3.88;;;6.00;85.20;;;;;;5157117;27;36319;-59
2022/01/28 03:54:37;;;;;;;22.17;3.63;;;6.00;85.00;;;;;;5157422;27;37574;-60
2022/01/28 03:57:07;;;;;;;22.77;4.00;;;6.00;85.10;;;;;;5157333;27;35968;-59
2022/01/28 03:59:34;;;;;;;27.48;4.18;;;6.00;85.20;;;;;;5156086;27;37893;-59
2022/01/28 04:02:02;;;;;;;23.83;4.07;;;6.00;85.20;;;;;;5156382;27;36387;-59
2022/01/28 04:12:44;;;;;;;23.20;3.88;;;5.90;86.00;;;;;;5157499;27;37447;-59
2022/01/28 04:15:23;;;;;;;20.33;4.18;;;6.00;86.30;;;;;;5158164;27;37164;-59
2022/01/28 04:17:51;;;;;;;18.45;3.85;;;6.00;86.50;;;;;;5158109;27;37435;-60
2022/01/28 04:20:19;;;;;;;26.70;5.03;;;6.00;86.50;;;;;;5155981;27;36856;-61
2022/01/28 04:22:46;;;;;;;19.55;4.78;;;6.00;86.40;;;;;;5156595;27;36044;-59
2022/01/28 04:25:15;;;;;;;17.85;4.15;;;6.00;86.50;;;;;;5159499;27;38436;-59
2022/01/28 04:27:42;;;;;;;26.42;4.47;;;6.00;86.60;;;;;;5160277;27;37360;-60
2022/01/28 04:30:10;;;;;;;22.27;4.30;;;6.00;86.60;;;;;;5160379;27;35864;-59
2022/01/28 04:32:39;;;;;;;22.98;3.55;;;6.00;86.50;;;;;;5160297;27;35399;-59
2022/01/28 04:35:07;;;;;;;24.73;4.40;;;6.10;86.60;;;;;;5160373;27;37675;-59
2022/01/28 04:37:43;;;;;;;20.00;3.40;;;6.10;86.70;;;;;;5161010;27;36119;-60
2022/01/28 04:40:14;;;;;;;19.17;3.75;;;6.00;86.50;;;;;;5160764;27;38478;-60
2022/01/28 04:42:58;;;;;;;20.13;4.25;;;6.00;86.50;;;;;;5160735;27;36929;-59
2022/01/28 04:45:32;;;;;;;26.70;4.60;;;6.00;86.60;;;;;;5160194;27;37737;-59
2022/01/28 04:48:10;;;;;;;28.35;3.80;;;6.00;86.60;;;;;;5161409;27;37418;-59
2022/01/28 04:50:47;;;;;;;20.23;4.05;;;6.00;86.90;;;;;;5158330;27;38123;-60
2022/01/28 04:53:29;;;;;;;24.80;4.72;;;5.90;86.90;;;;;;5158852;27;35345;-60
2022/01/28 04:59:16;;;;;;;21.57;4.20;;;5.90;87.20;;;;;;5111538;27;38773;-60
2022/01/28 05:02:05;;;;;;;22.10;3.30;;;5.80;87.20;;;;;;5158707;27;35841;-60
2022/01/28 05:04:55;;;;;;;18.50;3.45;;;5.80;87.10;;;;;;5159125;27;35475;-59
2022/01/28 05:07:42;;;;;;;23.55;5.40;;;5.80;87.10;;;;;;5160297;27;36572;-60
2022/01/28 05:24:38;;;;;;;16.95;3.95;;;5.60;86.40;;;;;;5158894;27;38940;-60
2022/01/28 05:27:08;;;;;;;25.00;4.20;;;5.60;85.80;;;;;;5158368;27;38726;-60
2022/01/28 05:29:35;;;;;;;26.05;4.75;;;5.60;85.80;;;;;;5156928;27;40435;-59
2022/01/28 05:32:05;;;;;;;16.35;3.10;;;5.60;85.80;;;;;;5158321;27;37074;-59
2022/01/28 05:34:32;;;;;;;26.27;4.30;;;5.60;85.70;;;;;;5157948;27;37175;-59
2022/01/28 05:36:59;;;;;;;18.85;3.72;;;5.60;85.70;;;;;;5157263;27;37291;-59
2022/01/28 05:39:27;;;;;;;22.00;3.08;;;5.70;85.20;;;;;;5156576;27;36286;-59
2022/01/28 05:41:54;;;;;;;20.42;3.47;;;5.70;85.40;;;;;;5158069;27;36948;-60
2022/01/28 05:44:22;;;;;;;19.70;3.75;;;5.70;85.30;;;;;;5156747;27;37238;-59
2022/01/28 05:46:51;;;;;;;19.83;4.03;;;5.70;85.20;;;;;;5155776;27;37912;-60
2022/01/28 05:49:19;;;;;;;22.50;3.10;;;5.70;85.40;;;;;;5157484;27;38526;-59
2022/01/28 05:51:47;;;;;;;25.60;3.90;;;5.80;85.40;;;;;;5159228;27;37333;-59
2022/01/28 05:54:14;;;;;;;18.33;3.15;;;5.80;85.40;;;;;;5159776;27;35707;-59
2022/01/28 05:56:41;;;;;;;33.50;4.28;;;5.80;85.50;;;;;;5158042;27;37032;-60
2022/01/28 05:59:09;;;;;;;23.02;4.70;;;5.90;85.60;;;;;;5158145;27;37342;-59
2022/01/28 06:01:36;;;;;;;29.25;4.07;;;5.90;85.70;;;;;;5157511;27;39635;-59
2022/01/28 06:04:04;;;;;;;26.17;3.92;;;6.00;85.80;;;;;;5158692;27;37507;-60
2022/01/28 06:06:33;;;;;;;26.05;3.65;;;6.00;85.80;;;;;;5158345;27;36372;-59
2022/01/28 06:09:00;;;;;;;23.05;3.92;;;6.00;86.00;;;;;;5157844;27;37638;-59
2022/01/28 06:11:28;;;;;;;23.98;3.67;;;6.10;86.10;;;;;;5157894;27;37816;-59
2022/01/28 06:13:55;;;;;;;19.33;3.33;;;6.10;86.10;;;;;;5157031;27;38814;-59
2022/01/28 06:16:23;;;;;;;19.15;3.75;;;6.10;86.20;;;;;;5157367;27;37558;-60
2022/01/28 06:18:50;;;;;;;26.77;3.70;;;6.10;86.20;;;;;;5157668;27;36460;-59
2022/01/28 06:21:17;;;;;;;21.33;3.50;;;6.10;86.30;;;;;;5158848;27;37691;-59
2022/01/28 06:23:46;;;;;;;18.75;4.40;;;6.10;86.30;;;;;;5158498;27;37117;-59
2022/01/28 06:26:16;;;;;;;27.05;3.78;;;6.20;86.30;;;;;;5158934;27;37579;-59
2022/01/28 06:28:43;;;;;;;18.33;3.70;;;6.20;86.10;;;;;;5158400;27;38102;-59
2022/01/28 06:31:11;;;;;;;18.63;3.72;;;6.20;86.30;;;;;;5157413;27;39656;-60
2022/01/28 06:33:38;;;;;;;20.13;3.88;;;6.20;86.40;;;;;;5158602;27;37160;-59
2022/01/28 06:36:06;;;;;;;30.75;4.18;;;6.20;86.20;;;;;;5159915;27;36071;-59
2022/01/28 06:38:34;;;;;;;19.83;3.47;;;6.20;86.30;;;;;;5157565;27;38834;-59
2022/01/28 06:41:02;;;;;;;22.98;3.42;;;6.20;86.30;;;;;;5157922;27;38276;-59
2022/01/28 06:43:30;;;;;;;23.15;2.95;;;6.20;86.40;;;;;;5157679;27;37105;-59
2022/01/28 06:45:57;;;;;;;20.80;3.70;;;6.20;86.40;;;;;;5156554;27;35402;-59
2022/01/28 06:48:24;;;;;;;23.08;4.68;;;6.20;86.60;;;;;;5158706;27;37417;-59
2022/01/28 06:50:52;;;;;;;26.27;3.80;;;6.20;86.60;;;;;;5158722;27;37904;-59
2022/01/28 06:53:19;;;;;;;21.00;3.90;;;6.10;86.80;;;;;;5157677;27;37649;-59
2022/01/28 06:55:46;;;;;;;27.58;4.32;;;6.10;87.00;;;;;;5157029;27;36592;-59
2022/01/28 06:58:15;;;;;;;18.92;6.05;;;6.00;87.30;;;;;;5158522;27;37234;-59
2022/01/28 07:00:42;;;;;;;25.70;4.07;;;6.00;87.70;;;;;;5157994;27;36215;-59
2022/01/28 07:03:12;;;;;;;20.05;3.63;;;6.00;88.00;;;;;;5157419;27;36920;-59
2022/01/28 07:05:40;;;;;;;31.73;5.30;;;6.00;88.20;;;;;;5158078;27;35415;-59
2022/01/28 07:08:08;;;;;;;27.42;4.90;;;6.00;88.20;;;;;;5158617;27;37169;-59
2022/01/28 07:10:36;;;;;;;27.52;4.25;;;6.00;88.20;;;;;;5157753;27;39127;-58
2022/01/28 07:13:04;;;;;;;30.42;4.57;;;6.00;88.30;;;;;;5158678;27;37719;-59
2022/01/28 07:15:32;;;;;;;27.88;4.15;;;6.10;88.30;;;;;;5158080;27;36488;-59
2022/01/28 07:18:02;;;;;;;23.63;4.35;;;6.10;88.30;;;;;;5158713;27;38584;-59
2022/01/28 07:20:30;;;;;;;32.38;5.35;;;6.20;88.30;;;;;;5156797;27;38486;-59
2022/01/28 07:22:58;;;;;;;22.27;4.15;;;6.10;88.20;;;;;;5156530;27;37225;-59
2022/01/28 07:25:25;;;;;;;28.55;5.30;;;6.30;88.30;;;;;;5155120;27;36610;-59
2022/01/28 07:27:53;;;;;;;24.20;5.65;;;6.20;88.20;;;;;;5158583;27;36342;-59
2022/01/28 07:30:21;;;;;;;25.05;5.32;;;6.10;88.40;;;;;;5157268;27;38286;-59
2022/01/28 07:32:51;;;;;;;25.48;4.75;;;6.20;88.50;;;;;;5158309;27;37495;-59
2022/01/28 07:35:18;;;;;;;27.75;3.97;;;6.30;88.70;;;;;;5159371;27;37811;-58
2022/01/28 07:37:46;;;;;;;18.33;3.95;;;6.20;88.80;;;;;;5158699;27;37492;-59
2022/01/28 07:40:14;;;;;;;26.55;4.47;;;6.20;88.80;;;;;;5157386;27;37533;-59
2022/01/28 07:42:42;;;;;;;22.38;5.10;;;6.20;88.80;;;;;;5159393;27;38079;-59
2022/01/28 07:45:13;;;;;;;19.88;3.55;;;6.20;88.70;;;;;;5157709;27;35442;-59
2022/01/28 07:47:41;;;;;;;26.25;4.57;;;6.20;88.50;;;;;;5157903;27;36454;-59
2022/01/28 07:50:12;;;;;;;26.98;4.47;;;6.20;88.30;;;;;;5157823;27;37574;-59
2022/01/28 07:52:40;;;;;;;19.42;3.55;;;6.10;88.00;;;;;;5158125;27;38403;-59
2022/01/28 07:55:10;;;;;;;28.35;3.90;;;6.10;87.90;;;;;;5157819;27;37863;-59
2022/01/28 07:57:37;;;;;;;19.08;3.95;;;6.10;87.50;;;;;;5160440;27;37145;-59
2022/01/28 08:00:07;;;;;;;19.77;3.03;;;6.00;87.20;;;;;;5162170;27;37131;-59
2022/01/28 08:02:34;;;;;;;21.38;3.50;;;6.00;87.10;;;;;;5160219;27;35981;-59
2022/01/28 08:05:01;;;;;;;19.17;4.05;;;6.00;86.80;;;;;;5162350;27;36581;-59
2022/01/28 08:07:30;;;;;;;26.75;4.35;;;6.00;86.60;;;;;;5162044;27;35649;-59
2022/01/28 08:09:57;;;;;;;22.00;3.65;;;6.00;86.50;;;;;;5160888;27;36373;-59
2022/01/28 08:12:25;;;;;;;24.35;4.18;;;5.90;86.40;;;;;;5161971;27;37578;-59
2022/01/28 08:14:52;;;;;;;22.75;3.40;;;5.90;86.40;;;;;;5162423;27;37742;-59
2022/01/28 08:17:19;;;;;;;25.45;5.13;;;5.90;86.50;;;;;;5161186;27;36383;-59
2022/01/28 08:19:47;;;;;;;16.92;3.53;;;5.90;86.60;;;;;;5161118;27;37443;-59
2022/01/28 08:22:14;;;;;;;29.38;3.88;;;5.90;87.10;;;;;;5160906;27;37082;-59
2022/01/28 08:24:43;;;;;;;19.92;3.60;;;5.90;87.20;;;;;;5160793;27;36630;-59
2022/01/28 08:27:10;;;;;;;21.98;4.00;;;6.00;87.30;;;;;;5156992;27;37332;-59
2022/01/28 08:29:37;;;;;;;26.88;4.07;;;6.00;87.40;;;;;;5159969;27;37981;-59
2022/01/28 08:32:05;;;;;;;20.13;4.07;;;6.00;87.60;;;;;;5159411;27;36772;-59
2022/01/28 08:34:33;;;;;;;25.90;3.97;;;6.10;87.80;;;;;;5160978;27;35337;-59
2022/01/28 08:37:03;;;;;;;26.67;4.40;;;6.10;88.00;;;;;;5160235;27;38449;-59
2022/01/28 08:39:31;;;;;;;29.58;3.90;;;6.10;88.00;;;;;;5159299;27;37813;-59
2022/01/28 08:42:00;;;;;;;21.17;4.22;;;6.10;88.20;;;;;;5159325;27;35893;-59
2022/01/28 08:44:28;;;;;;;22.30;3.80;;;6.10;88.20;;;;;;5160819;27;37896;-59
2022/01/28 08:46:55;;;;;;;36.78;4.88;;;6.10;88.40;;;;;;5160822;27;36459;-60
2022/01/28 08:49:22;;;;;;;28.58;4.80;;;6.20;88.50;;;;;;5160968;27;37399;-59
2022/01/28 08:51:50;;;;;;;22.23;4.18;;;6.20;88.50;;;;;;5161648;27;38258;-59
2022/01/28 08:54:18;;;;;;;24.52;3.78;;;6.30;88.70;;;;;;5160501;27;36963;-60
2022/01/28 08:56:45;;;;;;;23.23;3.72;;;6.40;88.50;;;;;;5158916;27;37686;-60
2022/01/28 08:59:14;;;;;;;25.48;3.83;;;6.40;88.40;;;;;;5157598;27;37848;-61
2022/01/28 09:01:42;;;;;;;19.10;3.45;;;6.50;88.40;;;;;;5156417;27;38071;-59
2022/01/28 09:04:09;;;;;;;25.13;4.05;;;6.60;88.30;;;;;;5157455;27;36894;-60
2022/01/28 09:06:36;;;;;;;19.20;4.25;;;6.70;88.10;;;;;;5159836;27;36996;-60
2022/01/28 09:09:04;;;;;;;27.88;3.90;;;6.80;87.80;;;;;;5159087;27;37798;-60
2022/01/28 09:11:44;;;;;;;22.50;3.13;;;6.90;87.60;;;;;;5158940;27;38197;-60
2022/01/28 09:14:13;;;;;;;23.98;4.43;;;7.10;87.50;;;;;;5160998;27;35409;-60
2022/01/28 09:16:41;;;;;;;23.90;5.15;;;7.30;87.10;;;;;;5159370;27;38521;-60
2022/01/28 09:19:08;;;;;;;19.08;4.00;;;7.60;86.00;;;;;;5159381;27;35906;-60
2022/01/28 09:21:36;;;;;;;25.35;3.85;;;7.90;84.90;;;;;;5159845;27;37628;-60
2022/01/28 09:24:04;;;;;;;21.30;4.20;;;8.30;83.30;;;;;;5157700;27;36426;-60
2022/01/28 09:26:31;;;;;;;19.92;4.03;;;8.70;82.10;;;;;;5158893;27;37247;-61
2022/01/28 09:28:58;;;;;;;18.80;3.15;;;9.00;81.10;;;;;;5158699;27;37847;-60
2022/01/28 09:31:27;;;;;;;28.00;4.65;;;9.30;80.50;;;;;;5160198;27;38322;-60
2022/01/28 09:33:55;;;;;;;19.05;3.85;;;9.40;79.60;;;;;;5160967;27;37522;-60
2022/01/28 09:36:22;;;;;;;26.75;4.82;;;9.50;79.30;;;;;;5159910;27;38105;-60
2022/01/28 09:38:50;;;;;;;28.60;5.30;;;9.40;79.10;;;;;;5160263;27;37113;-60
2022/01/28 09:41:18;;;;;;;25.83;4.85;;;9.20;79.30;;;;;;5159983;27;37512;-61
2022/01/28 09:43:47;;;;;;;25.52;4.28;;;9.00;80.20;;;;;;5159827;27;36584;-60
2022/01/28 09:46:14;;;;;;;22.40;3.50;;;8.90;80.80;;;;;;5159560;27;38466;-60
2022/01/28 09:48:46;;;;;;;25.27;5.03;;;8.70;81.10;;;;;;5160612;27;36752;-60
2022/01/28 09:51:13;;;;;;;28.85;5.22;;;8.50;81.60;;;;;;5158590;27;37415;-61
2022/01/28 09:53:41;;;;;;;27.58;4.20;;;8.50;82.00;;;;;;5159924;27;35870;-60
2022/01/28 09:56:08;;;;;;;21.05;3.47;;;8.40;82.50;;;;;;5159986;27;37637;-60
2022/01/28 09:58:36;;;;;;;24.23;4.53;;;8.30;82.60;;;;;;5158719;27;37593;-60
2022/01/28 10:01:04;;;;;;;28.77;5.63;;;8.30;83.10;;;;;;5158132;27;34556;-61
2022/01/28 10:03:31;;;;;;;26.95;3.88;;;8.20;83.40;;;;;;5158417;27;36773;-61
2022/01/28 10:06:00;;;;;;;22.55;4.28;;;8.20;83.40;;;;;;5158720;27;39011;-60
2022/01/28 10:08:28;;;;;;;22.40;4.40;;;8.20;83.50;;;;;;5157053;27;37974;-60
2022/01/28 10:10:59;;;;;;;24.60;4.15;;;8.20;83.60;;;;;;5157505;27;37652;-60
2022/01/28 10:13:33;;;;;;;26.00;4.82;;;8.00;83.60;;;;;;5159066;27;35547;-60
2022/01/28 10:16:11;;;;;;;22.48;3.92;;;8.20;83.80;;;;;;5157695;27;37558;-60
2022/01/28 10:18:49;;;;;;;36.33;4.70;;;8.20;83.60;;;;;;5158438;27;36592;-60
2022/01/28 10:21:30;;;;;;;28.42;4.53;;;8.20;83.60;;;;;;5156859;27;37290;-60
2022/01/28 10:24:13;;;;;;;18.73;3.97;;;8.10;83.50;;;;;;5156954;27;37398;-60
2022/01/28 10:26:43;;;;;;;22.60;4.20;;;8.10;83.50;;;;;;5157492;27;36249;-61
2022/01/28 10:29:13;;;;;;;21.63;3.42;;;8.10;83.80;;;;;;5156643;27;38829;-60
2022/01/28 10:31:48;;;;;;;21.23;4.75;;;8.20;83.90;;;;;;5158808;27;37876;-60
2022/01/28 10:34:19;;;;;;;24.50;3.67;;;8.30;83.70;;;;;;5160013;27;37375;-60
2022/01/28 10:36:49;;;;;;;21.50;4.07;;;8.30;83.60;;;;;;5159317;27;36396;-60
2022/01/28 10:39:20;;;;;;;20.83;3.80;;;8.30;83.40;;;;;;5158980;27;37249;-60
2022/01/28 10:41:56;;;;;;;22.35;3.55;;;8.30;83.40;;;;;;5158879;27;39096;-61
2022/01/28 10:44:25;;;;;;;17.98;3.90;;;8.30;83.50;;;;;;5158105;27;37860;-59
2022/01/28 10:46:55;;;;;;;20.80;3.22;;;8.40;83.50;;;;;;5158253;27;36411;-60
2022/01/28 10:49:32;;;;;;;25.05;4.45;;;8.50;83.20;;;;;;5157906;27;37780;-60
2022/01/28 10:52:11;;;;;;;22.35;4.13;;;8.50;82.90;;;;;;5160390;27;37797;-60
2022/01/28 10:54:39;;;;;;;27.15;4.82;;;8.80;82.70;;;;;;5158542;27;36467;-60
2022/01/28 10:57:09;;;;;;;16.52;3.17;;;9.00;82.20;;;;;;5159729;27;39645;-59
2022/01/28 10:59:39;;;;;;;24.60;3.53;;;9.20;81.40;;;;;;5158664;27;37617;-59
2022/01/28 11:02:07;;;;;;;22.63;3.95;;;9.20;80.80;;;;;;5158472;27;37932;-59
2022/01/28 11:04:35;;;;;;;23.08;5.20;;;9.20;80.60;;;;;;5158276;27;37060;-60
2022/01/28 11:07:03;;;;;;;28.90;4.50;;;9.20;80.50;;;;;;5155714;27;37444;-59
2022/01/28 11:09:32;;;;;;;24.60;3.72;;;9.20;80.60;;;;;;5157986;27;38560;-59
2022/01/28 11:12:01;;;;;;;24.83;3.80;;;9.10;80.50;;;;;;5157978;27;37645;-59
2022/01/28 11:14:28;;;;;;;21.48;4.13;;;9.10;80.50;;;;;;5157804;27;37661;-59
2022/01/28 11:16:56;;;;;;;21.83;3.88;;;9.10;80.60;;;;;;5159462;27;37520;-59
2022/01/28 11:19:25;;;;;;;24.88;3.58;;;9.10;80.60;;;;;;5157019;27;37574;-59
2022/01/28 11:22:16;;;;;;;21.25;3.60;;;9.00;80.10;;;;;;5158139;27;37387;-59
2022/01/28 11:25:05;;;;;;;31.90;5.47;;;9.00;79.00;;;;;;5153378;27;37088;-59
2022/01/28 11:27:34;;;;;;;20.30;3.88;;;8.90;79.20;;;;;;5157509;27;38648;-59
2022/01/28 11:30:20;;;;;;;18.15;3.65;;;8.90;79.70;;;;;;5156195;27;37912;-58
2022/01/28 11:32:59;;;;;;;24.63;4.55;;;8.80;78.80;;;;;;5154927;27;38604;-59
2022/01/28 11:35:33;;;;;;;22.50;3.22;;;8.80;78.90;;;;;;5158679;27;35362;-59
2022/01/28 11:38:04;;;;;;;19.10;4.13;;;8.90;78.70;;;;;;5156530;27;37300;-59
2022/01/28 11:40:51;;;;;;;23.42;4.03;;;8.90;78.70;;;;;;5155876;27;38696;-59
2022/01/28 11:43:21;;;;;;;25.05;3.63;;;9.00;77.90;;;;;;5156600;27;37563;-59
2022/01/28 11:45:49;;;;;;;18.60;3.63;;;9.10;78.40;;;;;;5152654;27;35195;-59
2022/01/28 11:48:16;;;;;;;19.35;4.57;;;9.10;77.70;;;;;;5154674;27;36982;-58
2022/01/28 11:50:52;;;;;;;29.30;4.13;;;9.00;77.10;;;;;;5151806;27;37794;-59
2022/01/28 11:53:24;;;;;;;22.70;4.40;;;9.00;77.20;;;;;;5147849;27;36974;-59
2022/01/28 11:56:04;;;;;;;23.15;4.05;;;9.20;77.00;;;;;;5150037;27;35517;-59
2022/01/28 11:58:53;;;;;;;18.27;3.75;;;9.30;76.10;;;;;;5155697;27;38485;-59
2022/01/28 12:01:24;;;;;;;24.55;4.68;;;9.60;75.70;;;;;;5156785;27;37909;-59
2022/01/28 12:04:12;;;;;;;22.95;4.85;;;10.00;75.60;;;;;;5154127;27;37803;-59
2022/01/28 12:06:40;;;;;;;16.38;3.00;;;10.40;73.70;;;;;;5155271;27;36485;-59
2022/01/28 12:09:08;;;;;;;18.05;4.05;;;10.60;72.60;;;;;;5154778;27;37580;-59
2022/01/28 12:11:54;;;;;;;25.00;5.53;;;10.60;71.90;;;;;;5155730;27;38605;-59
2022/01/28 12:14:57;;;;;;;18.58;3.53;;;10.60;70.30;;;;;;5156064;27;38372;-59
2022/01/28 12:17:45;;;;;;;17.95;3.75;;;10.60;70.00;;;;;;5155059;27;36717;-59
2022/01/28 12:20:43;;;;;;;18.95;2.85;;;10.50;69.70;;;;;;5151474;27;37527;-59
2022/01/28 12:23:38;;;;;;;20.90;4.25;;;10.20;69.20;;;;;;5055367;28;38140;-59
2022/01/28 12:26:06;;;;;;;22.02;3.10;;;10.00;70.60;;;;;;5150810;27;37790;-59
2022/01/28 12:28:52;;;;;;;24.10;3.83;;;9.90;71.60;;;;;;5155878;27;37263;-59
2022/01/28 12:31:31;;;;;;;24.17;3.65;;;9.80;71.60;;;;;;5154403;27;37667;-59
2022/01/28 12:34:04;;;;;;;19.17;3.17;;;9.60;72.10;;;;;;5156071;27;39469;-59
2022/01/28 12:36:34;;;;;;;15.05;2.72;;;9.60;72.70;;;;;;5155660;27;36105;-60
2022/01/28 12:39:19;;;;;;;17.08;3.30;;;9.50;72.40;;;;;;5155769;27;36649;-59
2022/01/28 12:41:53;;;;;;;22.00;3.75;;;9.60;72.70;;;;;;5155566;27;37526;-59
2022/01/28 12:44:22;;;;;;;17.83;3.33;;;9.60;72.40;;;;;;5156374;27;36580;-59
2022/01/28 12:46:58;;;;;;;15.60;3.05;;;9.50;72.60;;;;;;5158104;27;38077;-59
2022/01/28 12:49:30;;;;;;;17.17;3.40;;;9.50;72.70;;;;;;5160238;27;37188;-59
2022/01/28 12:51:59;;;;;;;20.63;3.60;;;9.50;72.70;;;;;;5159201;27;37621;-58
2022/01/28 12:54:36;;;;;;;18.67;3.72;;;9.40;73.00;;;;;;5158314;27;39531;-59
2022/01/28 12:57:06;;;;;;;24.80;3.67;;;9.40;72.50;;;;;;5157633;27;36153;-59
2022/01/28 12:59:35;;;;;;;18.00;3.53;;;9.30;73.50;;;;;;5159064;27;37286;-59
2022/01/28 13:02:02;;;;;;;18.35;3.53;;;9.30;73.80;;;;;;5157618;27;37559;-59
2022/01/28 13:04:52;;;;;;;19.70;3.20;;;9.20;74.10;;;;;;5159824;27;36567;-59
2022/01/28 13:10:06;;;;;;;21.52;3.00;;;9.20;75.00;;;;;;5160052;27;37356;-59
2022/01/28 13:12:34;;;;;;;22.35;3.58;;;9.20;75.40;;;;;;5161144;27;37774;-59
2022/01/28 13:15:08;;;;;;;20.08;3.25;;;9.20;75.50;;;;;;5160258;27;38902;-59
2022/01/28 13:17:35;;;;;;;18.60;3.30;;;9.20;75.80;;;;;;5161056;27;37967;-59
2022/01/28 13:20:06;;;;;;;16.33;2.90;;;9.20;76.00;;;;;;5159180;27;35421;-59
2022/01/28 13:22:33;;;;;;;19.23;3.00;;;9.20;75.90;;;;;;5158488;27;38297;-59
2022/01/28 13:25:01;;;;;;;13.98;3.10;;;9.20;76.00;;;;;;5158575;27;39089;-60
2022/01/28 13:27:45;;;;;;;24.42;3.40;;;9.20;75.00;;;;;;5159372;27;38007;-59
2022/01/28 13:30:15;;;;;;;15.88;3.38;;;9.10;74.40;;;;;;5160070;27;36716;-59
2022/01/28 13:32:45;;;;;;;15.68;2.65;;;9.00;74.70;;;;;;5159632;27;37723;-59
2022/01/28 13:35:15;;;;;;;29.92;4.90;;;8.90;74.90;;;;;;5159630;27;37660;-59
2022/01/28 13:37:44;;;;;;;20.88;4.28;;;8.90;74.90;;;;;;5158447;27;38046;-59
2022/01/28 13:40:28;;;;;;;15.55;2.65;;;8.90;75.50;;;;;;5159469;27;38048;-59
2022/01/28 13:42:57;;;;;;;16.17;3.33;;;8.90;75.60;;;;;;5160209;27;36522;-59
2022/01/28 13:45:35;;;;;;;18.42;3.72;;;9.00;75.80;;;;;;5160005;27;36485;-59
2022/01/28 13:48:04;;;;;;;18.95;3.15;;;9.00;76.00;;;;;;5158573;27;36351;-60
2022/01/28 13:50:34;;;;;;;24.23;3.55;;;9.00;76.10;;;;;;5158958;27;36584;-59
2022/01/28 13:56:12;;;;;;;19.05;3.03;;;9.00;75.50;;;;;;5103815;27;37309;-59
2022/01/28 13:58:52;;;;;;;17.40;4.18;;;8.90;76.00;;;;;;5144885;27;38118;-59
2022/01/28 14:01:22;;;;;;;25.25;2.97;;;8.90;75.50;;;;;;5159178;27;37404;-59
2022/01/28 14:03:55;;;;;;;17.25;2.83;;;8.70;75.80;;;;;;5157986;27;38289;-59
2022/01/28 14:06:24;;;;;;;16.77;2.70;;;8.70;76.40;;;;;;5158570;27;36712;-59